Time;durP1;ratioP1;P1;durP2;ratioP2;P2;SDS_P1;SDS_P2;PMS_P1;PMS_P2;Temp;Humidity;BMP_temperature;BMP_pressure;BME280_temperature;BME280_humidity;BME280_pressure;Samples;Min_cycle;Max_cycle;Signal;HPM_P1;HPM_P2
2022/08/07 00:00:13;;;;;;;4.05;2.92;;;;;;;;;;5093034;28;20056;-70
2022/08/07 00:02:39;;;;;;;4.65;3.38;;;;;;;;;;5092658;28;20490;-70
2022/08/07 00:05:10;;;;;;;3.60;3.08;;;;;;;;;;5090725;28;20057;-71
2022/08/07 00:07:36;;;;;;;4.32;3.10;;;;;;;;;;5091282;28;20535;-70
2022/08/07 00:10:07;;;;;;;5.03;3.55;;;;;;;;;;5092857;28;20257;-71
2022/08/07 00:12:52;;;;;;;4.32;3.30;;;;;;;;;;5081377;28;20056;-71
2022/08/07 00:15:26;;;;;;;4.00;3.20;;;;;;;;;;5094581;28;20514;-71
2022/08/07 00:18:04;;;;;;;4.93;3.22;;;;;;;;;;5091686;28;20064;-72
2022/08/07 00:20:30;;;;;;;3.17;2.88;;;;;;;;;;5092497;28;20076;-71
2022/08/07 00:23:01;;;;;;;3.58;3.28;;;;;;;;;;5091740;28;20048;-70
2022/08/07 00:25:27;;;;;;;4.90;2.78;;;;;;;;;;5098031;28;20052;-71
2022/08/07 00:28:02;;;;;;;;;;;;;;;;;;5093547;28;20504;-71
2022/08/07 00:30:28;;;;;;;3.13;2.83;;;;;;;;;;5100869;28;45265;-71
2022/08/07 00:32:56;;;;;;;3.90;3.15;;;;;;;;;;5091079;27;20099;-70
2022/08/07 00:35:23;;;;;;;4.13;3.25;;;;;;;;;;5091429;28;20079;-71
2022/08/07 00:37:50;;;;;;;3.30;2.63;;;;;;;;;;5100982;28;20067;-71
2022/08/07 00:40:16;;;;;;;4.38;3.10;;;;;;;;;;5092170;28;20075;-71
2022/08/07 00:43:03;;;;;;;3.58;2.67;;;;;;;;;;5091585;28;20056;-72
2022/08/07 00:45:35;;;;;;;3.17;2.88;;;;;;;;;;5098322;28;20498;-71
2022/08/07 00:48:01;;;;;;;2.92;2.60;;;;;;;;;;5078950;28;20056;-71
2022/08/07 00:50:36;;;;;;;4.03;3.03;;;;;;;;;;5103140;28;20052;-71
2022/08/07 00:53:16;;;;;;;4.80;3.00;;;;;;;;;;5093029;28;20056;-71
2022/08/07 00:55:45;;;;;;;2.40;2.17;;;;;;;;;;5095251;28;20060;-72
2022/08/07 00:58:28;;;;;;;2.50;2.28;;;;;;;;;;5102352;27;20056;-71
2022/08/07 01:00:54;;;;;;;3.70;2.70;;;;;;;;;;5090864;28;20059;-72
2022/08/07 01:03:21;;;;;;;4.30;3.90;;;;;;;;;;5083217;28;20427;-71
2022/08/07 01:06:07;;;;;;;3.67;2.65;;;;;;;;;;5093339;28;20052;-72
2022/08/07 01:08:34;;;;;;;3.40;2.58;;;;;;;;;;5106068;27;20082;-72
2022/08/07 01:11:01;;;;;;;3.35;2.70;;;;;;;;;;5091556;28;20052;-72
2022/08/07 01:13:47;;;;;;;3.78;2.90;;;;;;;;;;5095050;28;20052;-72
2022/08/07 01:16:21;;;;;;;2.72;2.30;;;;;;;;;;5095598;27;20059;-72
2022/08/07 01:18:56;;;;;;;3.25;2.70;;;;;;;;;;5091009;28;20512;-72
2022/08/07 01:21:24;;;;;;;2.70;2.25;;;;;;;;;;5091604;28;20074;-72
2022/08/07 01:23:53;;;;;;;4.00;2.60;;;;;;;;;;5090804;28;20576;-72
2022/08/07 01:26:21;;;;;;;4.05;2.88;;;;;;;;;;5091470;28;20057;-72
2022/08/07 01:28:52;;;;;;;4.63;2.47;;;;;;;;;;5091223;28;20143;-72
2022/08/07 01:31:19;;;;;;;2.83;2.50;;;;;;;;;;5088762;28;20048;-72
2022/08/07 01:33:46;;;;;;;3.20;2.90;;;;;;;;;;5092898;28;20415;-71
2022/08/07 01:36:22;;;;;;;3.25;2.25;;;;;;;;;;5091352;28;20049;-71
2022/08/07 01:39:00;;;;;;;4.50;2.65;;;;;;;;;;5092049;28;20084;-71
2022/08/07 01:41:35;;;;;;;5.93;3.20;;;;;;;;;;5091914;28;20052;-71
2022/08/07 01:44:01;;;;;;;2.90;2.08;;;;;;;;;;5090069;28;20930;-72
2022/08/07 01:46:28;;;;;;;3.28;2.92;;;;;;;;;;5087865;28;20057;-72
2022/08/07 01:48:56;;;;;;;3.30;2.55;;;;;;;;;;5091904;28;20052;-71
2022/08/07 01:51:25;;;;;;;2.60;2.30;;;;;;;;;;5091628;28;20613;-71
2022/08/07 01:54:13;;;;;;;3.55;2.33;;;;;;;;;;5090785;28;20411;-71
2022/08/07 01:57:04;;;;;;;3.08;2.58;;;;;;;;;;5090634;28;20068;-71
2022/08/07 01:59:44;;;;;;;3.45;2.42;;;;;;;;;;5091604;28;20080;-71
2022/08/07 02:02:16;;;;;;;3.20;2.58;;;;;;;;;;5091233;28;20053;-72
2022/08/07 02:05:06;;;;;;;3.30;2.53;;;;;;;;;;5091629;28;20055;-72
2022/08/07 02:07:35;;;;;;;2.85;2.28;;;;;;;;;;5090288;28;20091;-72
2022/08/07 02:10:17;;;;;;;3.60;2.78;;;;;;;;;;5090464;28;20056;-71
2022/08/07 02:12:44;;;;;;;4.05;2.58;;;;;;;;;;5090070;28;20059;-72
2022/08/07 02:15:18;;;;;;;4.80;2.83;;;;;;;;;;5105939;28;20507;-71
2022/08/07 02:17:47;;;;;;;10.80;3.58;;;;;;;;;;5090005;28;20175;-71
2022/08/07 02:20:15;;;;;;;4.20;2.75;;;;;;;;;;5090541;28;20126;-71
2022/08/07 02:22:51;;;;;;;6.20;2.45;;;;;;;;;;5093361;28;20060;-71
2022/08/07 02:25:20;;;;;;;2.78;2.38;;;;;;;;;;5094454;28;20044;-71
2022/08/07 02:28:07;;;;;;;3.10;2.30;;;;;;;;;;5095558;28;20048;-71
2022/08/07 02:30:37;;;;;;;4.47;2.50;;;;;;;;;;5099112;27;20052;-72
2022/08/07 02:33:04;;;;;;;4.18;2.53;;;;;;;;;;5093896;28;20172;-72
2022/08/07 02:35:36;;;;;;;2.70;2.50;;;;;;;;;;5094543;28;20568;-71
2022/08/07 02:38:25;;;;;;;3.78;2.35;;;;;;;;;;5094957;28;20048;-71
2022/08/07 02:40:57;;;;;;;3.53;3.22;;;;;;;;;;5094688;28;20127;-71
2022/08/07 02:43:25;;;;;;;2.85;2.60;;;;;;;;;;5093179;28;20064;-72
2022/08/07 02:45:52;;;;;;;3.22;2.92;;;;;;;;;;5093703;28;20049;-71
2022/08/07 02:48:27;;;;;;;4.68;2.70;;;;;;;;;;5094042;28;20060;-72
2022/08/07 02:50:54;;;;;;;4.30;3.00;;;;;;;;;;5093899;28;20052;-72
2022/08/07 02:53:23;;;;;;;3.08;2.78;;;;;;;;;;5093903;28;20052;-72
2022/08/07 02:55:54;;;;;;;4.18;3.28;;;;;;;;;;5093996;28;20052;-71
2022/08/07 02:58:30;;;;;;;3.67;2.90;;;;;;;;;;5091924;28;20193;-71
2022/08/07 03:00:58;;;;;;;3.25;2.95;;;;;;;;;;5091021;28;20381;-71
2022/08/07 03:03:26;;;;;;;3.70;2.92;;;;;;;;;;5094185;28;20058;-71
2022/08/07 03:06:13;;;;;;;3.13;2.70;;;;;;;;;;5093950;28;20056;-71
2022/08/07 03:08:51;;;;;;;3.08;2.78;;;;;;;;;;5073205;28;20052;-71
2022/08/07 03:11:18;;;;;;;5.13;2.90;;;;;;;;;;5093212;28;20052;-72
2022/08/07 03:13:50;;;;;;;3.55;3.13;;;;;;;;;;5093047;28;20061;-72
2022/08/07 03:16:23;;;;;;;5.88;3.53;;;;;;;;;;5093510;28;20496;-71
2022/08/07 03:18:53;;;;;;;5.15;3.33;;;;;;;;;;5079738;28;20049;-72
2022/08/07 03:21:21;;;;;;;3.50;3.20;;;;;;;;;;5092819;28;20053;-72
2022/08/07 03:23:49;;;;;;;3.30;3.00;;;;;;;;;;5092929;28;20063;-72
2022/08/07 03:26:36;;;;;;;4.30;3.30;;;;;;;;;;5085328;28;20056;-72
2022/08/07 03:29:19;;;;;;;3.03;2.70;;;;;;;;;;5093723;28;20058;-72
2022/08/07 03:31:47;;;;;;;4.22;3.35;;;;;;;;;;5090296;28;21383;-72
2022/08/07 03:34:16;;;;;;;6.53;4.43;;;;;;;;;;5091999;28;20060;-71
2022/08/07 03:36:48;;;;;;;4.47;3.25;;;;;;;;;;5092174;28;20499;-70
2022/08/07 03:39:16;;;;;;;4.20;3.13;;;;;;;;;;5093029;28;20862;-70
2022/08/07 03:42:03;;;;;;;3.40;3.00;;;;;;;;;;5091506;28;20063;-71
2022/08/07 03:44:31;;;;;;;3.72;3.15;;;;;;;;;;5092944;28;20056;-70
2022/08/07 03:47:00;;;;;;;4.25;3.22;;;;;;;;;;5077900;28;20473;-71
2022/08/07 03:49:40;;;;;;;5.72;3.72;;;;;;;;;;5093185;28;20514;-71
2022/08/07 03:52:07;;;;;;;3.80;3.40;;;;;;;;;;5091986;28;20487;-70
2022/08/07 03:54:48;;;;;;;3.75;2.97;;;;;;;;;;5116046;27;20052;-71
2022/08/07 03:57:24;;;;;;;5.30;3.05;;;;;;;;;;5092515;28;20107;-70
2022/08/07 04:00:10;;;;;;;4.80;3.42;;;;;;;;;;5090663;28;20061;-70
2022/08/07 04:02:37;;;;;;;4.45;3.03;;;;;;;;;;5092572;28;20076;-71
2022/08/07 04:05:06;;;;;;;3.80;3.28;;;;;;;;;;5089249;28;20060;-71
2022/08/07 04:07:34;;;;;;;2.95;2.70;;;;;;;;;;5077461;28;20056;-71
2022/08/07 04:10:07;;;;;;;3.72;3.22;;;;;;;;;;5091442;28;20130;-71
2022/08/07 04:12:44;;;;;;;3.60;3.20;;;;;;;;;;5092610;28;20056;-71
2022/08/07 04:15:12;;;;;;;4.32;3.20;;;;;;;;;;5092713;28;20500;-71
2022/08/07 04:17:41;;;;;;;4.57;3.10;;;;;;;;;;5091038;28;20096;-71
2022/08/07 04:20:28;;;;;;;4.68;3.05;;;;;;;;;;5092602;28;20570;-71
2022/08/07 04:22:56;;;;;;;3.28;2.97;;;;;;;;;;5091996;28;20107;-71
2022/08/07 04:25:27;;;;;;;8.57;3.65;;;;;;;;;;5092060;28;20048;-71
2022/08/07 04:27:54;;;;;;;5.15;3.13;;;;;;;;;;5091846;28;20091;-71
2022/08/07 04:30:26;;;;;;;3.85;3.40;;;;;;;;;;5092516;28;20549;-71
2022/08/07 04:33:10;;;;;;;4.13;3.30;;;;;;;;;;5094341;28;20581;-71
2022/08/07 04:35:42;;;;;;;4.03;3.28;;;;;;;;;;5094064;28;20049;-72
2022/08/07 04:38:15;;;;;;;3.43;2.93;;;;;;;;;;5104684;28;20136;-72
2022/08/07 04:40:42;;;;;;;5.70;3.17;;;;;;;;;;5090732;28;20534;-71
2022/08/07 04:43:20;;;;;;;6.10;3.55;;;;;;;;;;5089962;28;20048;-71
2022/08/07 04:46:21;;;;;;;3.28;2.80;;;;;;;;;;5085384;28;20053;-71
2022/08/07 04:49:07;;;;;;;3.92;3.13;;;;;;;;;;5088884;28;20102;-72
2022/08/07 04:51:48;;;;;;;7.88;3.63;;;;;;;;;;5090005;28;20052;-72
2022/08/07 04:54:21;;;;;;;5.40;3.60;;;;;;;;;;5079123;28;20056;-71
2022/08/07 04:57:05;;;;;;;6.20;3.63;;;;;;;;;;5092982;28;20060;-71
2022/08/07 04:59:58;;;;;;;4.25;3.70;;;;;;;;;;5084779;28;20052;-71
2022/08/07 05:02:50;;;;;;;4.20;3.40;;;;;;;;;;5083695;28;20052;-72
2022/08/07 05:05:19;;;;;;;3.88;3.42;;;;;;;;;;5089710;28;20696;-72
2022/08/07 05:08:11;;;;;;;7.63;3.45;;;;;;;;;;5089513;28;20052;-71
2022/08/07 05:10:40;;;;;;;3.80;3.40;;;;;;;;;;5088945;28;20821;-71
2022/08/07 05:13:12;;;;;;;3.97;3.58;;;;;;;;;;5087989;28;20132;-71
2022/08/07 05:15:59;;;;;;;3.70;3.35;;;;;;;;;;5088989;27;20059;-71
2022/08/07 05:18:32;;;;;;;4.55;3.58;;;;;;;;;;5072754;28;20052;-71
2022/08/07 05:21:03;;;;;;;4.45;3.78;;;;;;;;;;5087685;28;20131;-72
2022/08/07 05:23:37;;;;;;;4.03;3.40;;;;;;;;;;5085905;28;20066;-72
2022/08/07 05:26:04;;;;;;;4.10;3.70;;;;;;;;;;5100800;27;20059;-72
2022/08/07 05:28:45;;;;;;;4.32;3.55;;;;;;;;;;5076422;28;20108;-72
2022/08/07 05:31:16;;;;;;;4.32;3.85;;;;;;;;;;5081394;28;20052;-72
2022/08/07 05:33:45;;;;;;;4.82;4.05;;;;;;;;;;5089143;28;20541;-72
2022/08/07 05:36:28;;;;;;;5.25;3.63;;;;;;;;;;5091446;28;20063;-72
2022/08/07 05:38:58;;;;;;;4.47;3.97;;;;;;;;;;5100846;28;20056;-72
2022/08/07 05:41:46;;;;;;;5.70;3.67;;;;;;;;;;5094843;28;20060;-70
2022/08/07 05:44:29;;;;;;;3.95;3.58;;;;;;;;;;5089361;28;20624;-73
2022/08/07 05:46:56;;;;;;;4.70;4.18;;;;;;;;;;5085319;28;20049;-70
2022/08/07 05:49:25;;;;;;;5.10;4.22;;;;;;;;;;5086099;28;20109;-70
2022/08/07 05:52:03;;;;;;;5.97;4.03;;;;;;;;;;5072645;28;20059;-71
2022/08/07 05:54:29;;;;;;;5.78;3.72;;;;;;;;;;5081041;28;20048;-70
2022/08/07 05:57:16;;;;;;;5.90;3.60;;;;;;;;;;5091531;28;20056;-71
2022/08/07 05:59:45;;;;;;;10.32;3.90;;;;;;;;;;5089769;28;20582;-71
2022/08/07 06:02:25;;;;;;;5.03;4.10;;;;;;;;;;5092546;28;20128;-71
2022/08/07 06:04:56;;;;;;;5.07;3.60;;;;;;;;;;5092858;28;20515;-71
2022/08/07 06:07:23;;;;;;;4.43;3.35;;;;;;;;;;5092633;28;20065;-73
2022/08/07 06:10:10;;;;;;;4.97;3.80;;;;;;;;;;5088837;27;20056;-73
2022/08/07 06:12:40;;;;;;;7.13;4.88;;;;;;;;;;5079238;28;20088;-73
2022/08/07 06:15:10;;;;;;;6.90;4.22;;;;;;;;;;5091956;28;20514;-72
2022/08/07 06:17:41;;;;;;;5.13;3.67;;;;;;;;;;5092129;28;20095;-73
2022/08/07 06:20:19;;;;;;;6.93;4.72;;;;;;;;;;5085260;28;20098;-72
2022/08/07 06:23:07;;;;;;;5.32;4.15;;;;;;;;;;5089036;27;20063;-72
2022/08/07 06:25:53;;;;;;;5.53;4.18;;;;;;;;;;5076532;28;20055;-73
2022/08/07 06:28:22;;;;;;;10.85;4.47;;;;;;;;;;5092601;28;20519;-73
2022/08/07 06:30:53;;;;;;;7.45;4.00;;;;;;;;;;5089768;28;20083;-73
2022/08/07 06:33:20;;;;;;;7.15;4.35;;;;;;;;;;5091580;28;20507;-73
2022/08/07 06:35:47;;;;;;;6.22;5.13;;;;;;;;;;5091575;28;20046;-73
2022/08/07 06:38:34;;;;;;;7.00;4.60;;;;;;;;;;5092162;28;20080;-73
2022/08/07 06:41:01;;;;;;;7.47;4.28;;;;;;;;;;5091386;28;20500;-73
2022/08/07 06:43:34;;;;;;;6.82;3.70;;;;;;;;;;5091025;28;20048;-73
2022/08/07 06:46:05;;;;;;;5.65;4.13;;;;;;;;;;5091891;28;20096;-73
2022/08/07 06:48:37;;;;;;;8.15;4.60;;;;;;;;;;5092773;28;20103;-73
2022/08/07 06:51:08;;;;;;;5.30;3.80;;;;;;;;;;5092052;28;20087;-73
2022/08/07 06:53:37;;;;;;;6.63;3.15;;;;;;;;;;5084506;28;20052;-73
2022/08/07 06:56:38;;;;;;;3.67;3.15;;;;;;;;;;5091900;27;20139;-73
2022/08/07 06:59:25;;;;;;;5.72;3.70;;;;;;;;;;5091867;28;20084;-73
2022/08/07 07:02:12;;;;;;;;;;;;;;;;;;5076951;28;20052;-72
2022/08/07 07:04:38;;;;;;;7.07;2.92;;;;;;;;;;5090350;28;45018;-72
2022/08/07 07:07:19;;;;;;;9.10;3.63;;;;;;;;;;5090806;28;20118;-71
2022/08/07 07:10:06;;;;;;;5.07;3.35;;;;;;;;;;5088723;28;20522;-71
2022/08/07 07:12:38;;;;;;;4.60;3.20;;;;;;;;;;5092054;28;20135;-71
2022/08/07 07:15:27;;;;;;;3.92;2.72;;;;;;;;;;5091211;28;20056;-72
2022/08/07 07:18:07;;;;;;;5.38;3.00;;;;;;;;;;5091540;28;20553;-72
2022/08/07 07:20:33;;;;;;;4.90;2.70;;;;;;;;;;5090779;28;20514;-72
2022/08/07 07:23:01;;;;;;;6.85;3.10;;;;;;;;;;5086804;28;20059;-66
2022/08/07 07:25:49;;;;;;;3.22;2.47;;;;;;;;;;5090190;28;20052;-70
2022/08/07 07:28:46;;;;;;;3.10;1.98;;;;;;;;;;5090549;28;20427;-70
2022/08/07 07:31:40;;;;;;;3.95;2.40;;;;;;;;;;5086462;28;20063;-74
2022/08/07 07:34:18;;;;;;;3.30;2.58;;;;;;;;;;5088664;28;20491;-72
2022/08/07 07:36:46;;;;;;;3.30;2.40;;;;;;;;;;5091290;27;20059;-73
2022/08/07 07:39:21;;;;;;;3.60;2.30;;;;;;;;;;5103260;28;20143;-73
2022/08/07 07:41:50;;;;;;;3.78;2.92;;;;;;;;;;5091355;27;20148;-73
2022/08/07 07:44:38;;;;;;;5.18;2.75;;;;;;;;;;5090861;28;20501;-72
2022/08/07 07:47:06;;;;;;;3.20;2.42;;;;;;;;;;5086297;28;20056;-72
2022/08/07 07:49:50;;;;;;;9.18;2.80;;;;;;;;;;5091064;28;20052;-73
2022/08/07 07:52:37;;;;;;;3.53;2.83;;;;;;;;;;5074905;28;20083;-73
2022/08/07 07:55:06;;;;;;;4.03;2.60;;;;;;;;;;5091167;28;20056;-74
2022/08/07 07:57:33;;;;;;;2.67;1.75;;;;;;;;;;5090638;28;20135;-73
2022/08/07 08:00:17;;;;;;;4.28;2.30;;;;;;;;;;5087889;28;20102;-73
2022/08/07 08:03:09;;;;;;;4.25;2.40;;;;;;;;;;5089268;28;20049;-73
2022/08/07 08:05:55;;;;;;;;;;;;;;;;;;5089603;28;20106;-73
2022/08/07 08:08:23;;;;;;;3.03;2.00;;;;;;;;;;5089612;28;44790;-72
2022/08/07 08:11:02;;;;;;;2.00;1.73;;;;;;;;;;5090517;28;20091;-72
2022/08/07 08:13:30;;;;;;;3.72;1.95;;;;;;;;;;5091410;28;20063;-73
2022/08/07 08:16:19;;;;;;;4.97;2.30;;;;;;;;;;5083113;28;20048;-73
2022/08/07 08:18:52;;;;;;;4.10;2.53;;;;;;;;;;5090904;28;20102;-73
2022/08/07 08:27:14;;;;;;;2.65;2.28;;;;;;;;;;5088674;28;20060;-72
2022/08/07 08:29:45;;;;;;;3.22;2.42;;;;;;;;;;5081364;28;20088;-73
2022/08/07 08:32:23;;;;;;;2.88;2.22;;;;;;;;;;5089635;28;20056;-72
2022/08/07 08:35:04;;;;;;;2.33;2.10;;;;;;;;;;5090579;28;20557;-73
2022/08/07 08:37:34;;;;;;;5.68;2.65;;;;;;;;;;5088379;28;20106;-73
2022/08/07 08:40:44;;;;;;;2.90;2.22;;;;;;;;;;5071152;28;20055;-72
2022/08/07 08:43:33;;;;;;;4.30;3.00;;;;;;;;;;5069941;28;20164;-73
2022/08/07 08:46:27;;;;;;;2.80;2.22;;;;;;;;;;5088900;28;20063;-72
2022/08/07 08:49:14;;;;;;;4.38;2.53;;;;;;;;;;5089522;28;20434;-73
2022/08/07 08:52:00;;;;;;;3.65;2.22;;;;;;;;;;5090510;28;20056;-72
2022/08/07 08:54:50;;;;;;;3.72;2.08;;;;;;;;;;5090093;28;20049;-73
2022/08/07 08:57:28;;;;;;;3.35;2.22;;;;;;;;;;5090396;28;20143;-73
2022/08/07 09:00:07;;;;;;;3.17;2.40;;;;;;;;;;5084879;28;20087;-73
2022/08/07 09:02:37;;;;;;;2.67;1.88;;;;;;;;;;5089317;28;20131;-72
2022/08/07 09:05:22;;;;;;;2.97;2.15;;;;;;;;;;5087427;28;20052;-73
2022/08/07 09:08:16;;;;;;;3.50;2.00;;;;;;;;;;5087229;28;20142;-73
2022/08/07 09:10:49;;;;;;;3.08;1.90;;;;;;;;;;5090351;28;20484;-72
2022/08/07 09:13:34;;;;;;;2.75;1.88;;;;;;;;;;5084151;28;20630;-73
2022/08/07 09:16:03;;;;;;;4.82;1.95;;;;;;;;;;5087235;28;20063;-72
2022/08/07 09:19:05;;;;;;;1.85;1.70;;;;;;;;;;5088565;28;20063;-72
2022/08/07 09:22:10;;;;;;;2.67;1.83;;;;;;;;;;5088962;28;20049;-72
2022/08/07 09:25:11;;;;;;;2.88;2.15;;;;;;;;;;5085122;28;20055;-73
2022/08/07 09:28:02;;;;;;;1.95;1.65;;;;;;;;;;5088637;28;20053;-72
2022/08/07 09:30:39;;;;;;;2.30;2.10;;;;;;;;;;5081037;28;20059;-73
2022/08/07 09:33:12;;;;;;;3.13;1.73;;;;;;;;;;5088260;28;20048;-73
2022/08/07 09:36:00;;;;;;;4.78;2.00;;;;;;;;;;5087987;28;20079;-74
2022/08/07 09:38:40;;;;;;;2.65;2.00;;;;;;;;;;5086071;28;20498;-73
2022/08/07 09:41:06;;;;;;;2.13;1.55;;;;;;;;;;5087602;28;20495;-72
2022/08/07 09:43:57;;;;;;;1.80;1.52;;;;;;;;;;5086938;28;20049;-72
2022/08/07 09:46:44;;;;;;;1.60;1.50;;;;;;;;;;5088141;28;20056;-72
2022/08/07 09:49:56;;;;;;;1.60;1.50;;;;;;;;;;5088676;28;20063;-72
2022/08/07 09:52:48;;;;;;;4.28;1.60;;;;;;;;;;5073966;28;20079;-72
2022/08/07 09:55:20;;;;;;;1.73;1.60;;;;;;;;;;5089182;28;20060;-73
2022/08/07 09:58:21;;;;;;;1.60;1.25;;;;;;;;;;5089774;28;20076;-72
2022/08/07 10:01:03;;;;;;;2.63;1.80;;;;;;;;;;5082031;28;20440;-72
2022/08/07 10:03:39;;;;;;;3.15;1.50;;;;;;;;;;5085527;28;20058;-72
2022/08/07 10:06:26;;;;;;;1.60;1.30;;;;;;;;;;5096200;28;20055;-72
2022/08/07 10:09:11;;;;;;;3.65;1.73;;;;;;;;;;5088016;27;20504;-73
2022/08/07 10:11:59;;;;;;;1.52;1.20;;;;;;;;;;5087516;28;20053;-73
2022/08/07 10:14:42;;;;;;;1.58;1.45;;;;;;;;;;5087295;28;20053;-73
2022/08/07 10:17:39;;;;;;;2.50;1.30;;;;;;;;;;5086746;28;20107;-73
2022/08/07 10:20:37;;;;;;;1.38;1.20;;;;;;;;;;5087957;28;20485;-73
2022/08/07 10:23:18;;;;;;;1.98;1.45;;;;;;;;;;5081496;28;20061;-73
2022/08/07 10:26:10;;;;;;;1.40;1.30;;;;;;;;;;5076043;27;20530;-73
2022/08/07 10:28:46;;;;;;;2.08;1.60;;;;;;;;;;5088806;28;20088;-73
2022/08/07 10:31:27;;;;;;;3.10;2.30;;;;;;;;;;5084507;28;20141;-72
2022/08/07 10:34:05;;;;;;;1.60;1.50;;;;;;;;;;5084288;28;20045;-74
2022/08/07 10:36:49;;;;;;;3.28;1.35;;;;;;;;;;5088710;28;20052;-73
2022/08/07 10:39:15;;;;;;;4.40;1.60;;;;;;;;;;5087680;28;20095;-73
2022/08/07 10:41:45;;;;;;;1.60;1.40;;;;;;;;;;5072765;28;20049;-70
2022/08/07 10:44:51;;;;;;;4.57;1.55;;;;;;;;;;5090302;28;20064;-71
2022/08/07 10:47:30;;;;;;;1.85;1.10;;;;;;;;;;5083250;28;20494;-70
2022/08/07 10:50:19;;;;;;;1.20;1.10;;;;;;;;;;5086991;28;20499;-70
2022/08/07 10:52:51;;;;;;;2.40;1.98;;;;;;;;;;5091833;28;20044;-70
2022/08/07 10:55:25;;;;;;;1.50;1.40;;;;;;;;;;5083154;28;20052;-70
2022/08/07 10:58:22;;;;;;;2.22;1.30;;;;;;;;;;5083173;28;20049;-72
2022/08/07 11:01:20;;;;;;;1.88;1.50;;;;;;;;;;5084598;28;20053;-67
2022/08/07 11:03:54;;;;;;;2.15;1.50;;;;;;;;;;5084974;28;20056;-70
2022/08/07 11:06:51;;;;;;;1.58;1.38;;;;;;;;;;5083412;28;20558;-71
2022/08/07 11:09:21;;;;;;;3.80;1.80;;;;;;;;;;5081154;28;20071;-72
2022/08/07 11:12:15;;;;;;;1.85;1.50;;;;;;;;;;5088410;28;20048;-69
2022/08/07 11:15:08;;;;;;;2.22;1.27;;;;;;;;;;5079625;28;20079;-71
2022/08/07 11:17:51;;;;;;;2.72;1.92;;;;;;;;;;5082560;28;20190;-71
2022/08/07 11:20:19;;;;;;;1.63;1.35;;;;;;;;;;5083493;28;20519;-69
2022/08/07 11:22:59;;;;;;;1.55;1.40;;;;;;;;;;5083601;28;20055;-73
2022/08/07 11:25:33;;;;;;;3.50;1.60;;;;;;;;;;5082816;28;20606;-70
2022/08/07 11:28:15;;;;;;;2.25;1.38;;;;;;;;;;5082350;28;20044;-69
2022/08/07 11:30:58;;;;;;;2.28;1.77;;;;;;;;;;5084506;28;20150;-72
2022/08/07 11:33:46;;;;;;;5.07;1.67;;;;;;;;;;5082148;28;20064;-71
2022/08/07 11:36:31;;;;;;;2.22;1.50;;;;;;;;;;5085505;28;20060;-72
2022/08/07 11:38:59;;;;;;;2.60;1.70;;;;;;;;;;5085493;28;20412;-72
2022/08/07 11:41:28;;;;;;;4.45;1.30;;;;;;;;;;5090909;28;20132;-72
2022/08/07 11:44:23;;;;;;;2.10;1.30;;;;;;;;;;5089975;27;20056;-72
2022/08/07 11:47:08;;;;;;;3.20;2.10;;;;;;;;;;5086144;28;20574;-72
2022/08/07 11:49:51;;;;;;;1.75;1.40;;;;;;;;;;5082154;28;20076;-72
2022/08/07 11:52:37;;;;;;;1.77;1.27;;;;;;;;;;5075135;28;20416;-71
2022/08/07 11:55:24;;;;;;;2.63;1.73;;;;;;;;;;5098599;27;20136;-71
2022/08/07 11:58:26;;;;;;;1.90;1.67;;;;;;;;;;5088159;28;20071;-71
2022/08/07 12:00:58;;;;;;;1.38;1.00;;;;;;;;;;5081129;28;20115;-71
2022/08/07 12:03:48;;;;;;;1.20;1.10;;;;;;;;;;5075998;28;20052;-70
2022/08/07 12:06:17;;;;;;;3.28;1.35;;;;;;;;;;5090078;28;20060;-70
2022/08/07 12:09:07;;;;;;;1.65;1.20;;;;;;;;;;5073921;28;20083;-69
2022/08/07 12:11:41;;;;;;;1.52;1.42;;;;;;;;;;5084876;28;20106;-70
2022/08/07 12:14:30;;;;;;;1.50;1.23;;;;;;;;;;5088835;28;20052;-69
2022/08/07 12:17:00;;;;;;;2.22;1.30;;;;;;;;;;5088259;28;20087;-70
2022/08/07 12:19:48;;;;;;;2.20;1.50;;;;;;;;;;5078524;28;20538;-73
2022/08/07 12:22:38;;;;;;;1.65;1.08;;;;;;;;;;5089637;28;20063;-72
2022/08/07 12:28:29;;;;;;;2.22;1.60;;;;;;;;;;5081467;28;20052;-71
2022/08/07 12:31:00;;;;;;;3.00;1.63;;;;;;;;;;5082552;28;20052;-71
2022/08/07 12:33:30;;;;;;;2.50;1.75;;;;;;;;;;5089030;28;20057;-71
2022/08/07 12:36:18;;;;;;;1.40;1.23;;;;;;;;;;5089335;28;20067;-70
2022/08/07 12:39:00;;;;;;;1.98;1.63;;;;;;;;;;5081256;28;20131;-70
2022/08/07 12:41:28;;;;;;;2.15;1.40;;;;;;;;;;5086301;28;20542;-73
2022/08/07 12:44:15;;;;;;;1.98;1.52;;;;;;;;;;5093127;28;21023;-72
2022/08/07 12:47:01;;;;;;;1.85;1.75;;;;;;;;;;5085782;28;20120;-72
2022/08/07 12:49:39;;;;;;;1.55;1.27;;;;;;;;;;5085953;28;20060;-68
2022/08/07 12:52:35;;;;;;;1.63;1.50;;;;;;;;;;5085957;28;20056;-72
2022/08/07 12:55:03;;;;;;;2.60;1.65;;;;;;;;;;5088567;28;20055;-71
2022/08/07 12:57:36;;;;;;;2.78;1.70;;;;;;;;;;5086836;28;20598;-72
2022/08/07 13:00:26;;;;;;;1.60;1.50;;;;;;;;;;5083361;28;20504;-72
2022/08/07 13:03:18;;;;;;;1.45;1.35;;;;;;;;;;5089222;28;20053;-71
2022/08/07 13:06:07;;;;;;;1.77;1.50;;;;;;;;;;5088482;28;20053;-71
2022/08/07 13:08:53;;;;;;;1.83;1.35;;;;;;;;;;5081372;28;20114;-71
2022/08/07 13:11:38;;;;;;;2.88;1.52;;;;;;;;;;5074669;27;20052;-72
2022/08/07 13:14:43;;;;;;;2.50;1.65;;;;;;;;;;5085214;28;20052;-71
2022/08/07 13:17:22;;;;;;;2.60;1.08;;;;;;;;;;5077853;28;20052;-72
2022/08/07 13:20:32;;;;;;;1.33;1.20;;;;;;;;;;5087913;28;20068;-72
2022/08/07 13:23:06;;;;;;;1.40;1.20;;;;;;;;;;5089642;28;20134;-71
2022/08/07 13:25:54;;;;;;;1.73;1.63;;;;;;;;;;5085562;28;20052;-70
2022/08/07 13:28:29;;;;;;;1.30;1.20;;;;;;;;;;5088047;28;20088;-69
2022/08/07 13:31:09;;;;;;;1.40;1.30;;;;;;;;;;5090149;28;20052;-69
2022/08/07 13:33:38;;;;;;;1.63;1.20;;;;;;;;;;5072580;28;20049;-69
2022/08/07 13:36:29;;;;;;;1.33;1.23;;;;;;;;;;5090928;28;20572;-71
2022/08/07 13:39:06;;;;;;;1.25;1.15;;;;;;;;;;5091741;28;20116;-70
2022/08/07 13:41:52;;;;;;;2.22;1.42;;;;;;;;;;5094280;28;20079;-70
2022/08/07 13:44:21;;;;;;;1.85;1.40;;;;;;;;;;5101591;28;20056;-71
2022/08/07 13:46:56;;;;;;;5.10;2.03;;;;;;;;;;5089840;28;20056;-71
2022/08/07 13:49:27;;;;;;;2.97;1.70;;;;;;;;;;5088044;28;20063;-71
2022/08/07 13:52:14;;;;;;;1.75;1.20;;;;;;;;;;5088995;28;20143;-70
2022/08/07 13:55:05;;;;;;;2.50;1.40;;;;;;;;;;5074760;28;20653;-72
2022/08/07 13:57:32;;;;;;;1.50;1.10;;;;;;;;;;5089352;28;20533;-71
2022/08/07 14:00:06;;;;;;;2.88;1.40;;;;;;;;;;5092484;28;20052;-72
2022/08/07 14:02:33;;;;;;;1.35;1.10;;;;;;;;;;5089253;28;20460;-71
2022/08/07 14:05:18;;;;;;;2.15;1.05;;;;;;;;;;5087890;28;20052;-71
2022/08/07 14:07:48;;;;;;;1.58;1.40;;;;;;;;;;5086575;27;20064;-71
2022/08/07 14:10:32;;;;;;;3.55;1.58;;;;;;;;;;5085803;28;20143;-70
2022/08/07 14:13:09;;;;;;;1.25;1.10;;;;;;;;;;5087162;28;20057;-71
2022/08/07 14:15:40;;;;;;;2.03;1.20;;;;;;;;;;5087017;28;20136;-71
2022/08/07 14:18:15;;;;;;;2.20;1.10;;;;;;;;;;5091165;28;20575;-71
2022/08/07 14:21:21;;;;;;;2.03;1.20;;;;;;;;;;5083787;28;20135;-69
2022/08/07 14:24:14;;;;;;;3.20;1.65;;;;;;;;;;5072247;28;20061;-70
2022/08/07 14:26:50;;;;;;;0.80;0.75;;;;;;;;;;5091843;28;20087;-70
2022/08/07 14:29:23;;;;;;;1.13;0.90;;;;;;;;;;5091213;28;20059;-70
2022/08/07 14:32:11;;;;;;;1.92;1.00;;;;;;;;;;5086002;28;20067;-69
2022/08/07 14:34:39;;;;;;;6.25;1.10;;;;;;;;;;5089778;28;20059;-70
2022/08/07 14:37:15;;;;;;;1.90;1.20;;;;;;;;;;5089971;28;20045;-67
2022/08/07 14:39:46;;;;;;;1.25;1.10;;;;;;;;;;5092179;28;20106;-69
2022/08/07 14:42:34;;;;;;;1.30;0.93;;;;;;;;;;5091739;28;20499;-69
2022/08/07 14:45:22;;;;;;;1.02;0.93;;;;;;;;;;5090701;28;20065;-69
2022/08/07 14:48:10;;;;;;;1.52;1.08;;;;;;;;;;5089823;28;20048;-69
2022/08/07 14:50:50;;;;;;;1.75;0.93;;;;;;;;;;5089884;28;20573;-69
2022/08/07 14:53:19;;;;;;;1.38;1.00;;;;;;;;;;5088741;28;20053;-69
2022/08/07 14:56:06;;;;;;;3.15;1.00;;;;;;;;;;5084789;28;20052;-69
2022/08/07 14:58:39;;;;;;;2.10;1.33;;;;;;;;;;5092954;27;20416;-69
2022/08/07 15:01:11;;;;;;;1.30;1.20;;;;;;;;;;5093388;28;20052;-69
2022/08/07 15:03:48;;;;;;;2.55;1.15;;;;;;;;;;5091345;28;20053;-69
2022/08/07 15:06:20;;;;;;;1.65;1.35;;;;;;;;;;5093117;28;20052;-69
2022/08/07 15:08:51;;;;;;;1.45;1.20;;;;;;;;;;5089488;28;20550;-69
2022/08/07 15:11:43;;;;;;;1.83;1.23;;;;;;;;;;5071621;28;20523;-70
2022/08/07 15:14:29;;;;;;;1.10;1.00;;;;;;;;;;5093463;28;20048;-69
2022/08/07 15:16:57;;;;;;;1.65;1.42;;;;;;;;;;5093531;27;20057;-69
2022/08/07 15:19:32;;;;;;;2.28;1.38;;;;;;;;;;5094105;28;20059;-69
2022/08/07 15:22:20;;;;;;;1.27;1.17;;;;;;;;;;5092439;28;20480;-70
2022/08/07 15:25:00;;;;;;;1.95;1.65;;;;;;;;;;5091583;28;20048;-70
2022/08/07 15:27:46;;;;;;;2.40;1.52;;;;;;;;;;5091018;28;20144;-69
2022/08/07 15:30:33;;;;;;;1.50;1.40;;;;;;;;;;5082294;28;20118;-70
2022/08/07 15:33:01;;;;;;;1.58;1.33;;;;;;;;;;5090226;28;20514;-70
2022/08/07 15:35:49;;;;;;;2.50;1.40;;;;;;;;;;5087606;28;20134;-69
2022/08/07 15:38:30;;;;;;;3.55;2.95;;;;;;;;;;5091165;28;20140;-69
2022/08/07 15:41:20;;;;;;;1.65;1.55;;;;;;;;;;5091060;28;20073;-70
2022/08/07 15:43:57;;;;;;;3.45;1.42;;;;;;;;;;5090316;28;20056;-69
2022/08/07 15:46:26;;;;;;;3.43;1.60;;;;;;;;;;5090432;28;20144;-69
2022/08/07 15:49:06;;;;;;;1.50;1.40;;;;;;;;;;5091872;28;20053;-69
2022/08/07 15:51:52;;;;;;;1.67;1.40;;;;;;;;;;5095093;28;20510;-69
2022/08/07 15:54:24;;;;;;;2.53;1.63;;;;;;;;;;5090335;28;20527;-69
2022/08/07 15:56:55;;;;;;;1.50;1.38;;;;;;;;;;5090912;28;20132;-69